Pagina principale
METAR-TAF:

METAR-TAF

Aeroporti :

Passo della Cisa, Italia

latitudine: 44-26N, longitudine: 009-56E, altezza: 1039 m

Osservazione

Il bollettino è stato emesso 46 minuti fa, alle 08:55 UTC
Vento 4 kt da nord
Temperature 17°C
Umidità 59%
Pressione 1021 hPa
Visibilità 10 km o più
nessuna nube inferiore a 1500 m e nessun cumulonembo

METAR: LIMT 290855Z 01004KT CAVOK 17/09 Q1021 RMK SKC MON LIB VAL NIL VIS MIN 9999

Ora: 11:41 (09:41 UTC)


TAF: mancante

Osservazioni e previsioni meteorologiche di più di 4000 aeroporti (messaggi METAR e TAF).

Le stazioni disponibili sono rappresentate dai dischi gialli e rossi sulla carta.

Puntare il mouse per vedere il nome della stazione.

Clicca sopra per visualizzare le osservazioni e previsioni meteorologiche.

Per cambiare la mappa : fare clic sui pulsanti verdi con una croce nera per ingrandire, il pulsante verde con un trattino per diminuire, o sulla freccia verde per le mappe adiacenti.


METAR-TAF: